No Warnings, Watches, or Advisories

Active alerts


No alerts

Amazon Weather

Hours of Daylight

12 hrs 7 min 28 sec
of Daylight Today
graph 50.5% Day 49.5% Night Which is
2 min 42 sec Shorter
Than Yesterday

South Webcam Still Photo more information South Webcam Still Photo


You find our weather info also at:

UK Metoffice

Weather Underground

Mid-Atlantic Weather Network

WeatherlinkIP

Citizen Weather Observer Program (CWOP)

HAMweather, WeatherForYou, PWS Weather



Nearby METAR Reports

   
KDUJ - Du Bois, Pennsylvania, USA
Distance from station: NNE 16 mi
Updated: Sep 22 2017 1:53 am
Clear  
Clear  
   Wind: ENE 3.5 mph
Wind: ENE 3.5 mph
Temperature: 64.4°F
Dew Point: 57.2°F
Humidity: 78%
Barometer: 30.14 inHg
Clouds: Clear
Visibility: 10 mi
Cloud details: Clear
KDUJ 220553Z AUTO 06003KT 10SM CLR 18/14 A3014 RMK AO2 SLP195 T01780139 10222 20172 57000
KIDI - Indiana/Stewart, Pennsylvania, USA
Distance from station: SSW 23 mi
Updated: Sep 22 2017 1:55 am
Clear  
Clear  
   Wind: Calm
Wind: Calm
Temperature: 60.8°F
Dew Point: 59°F
Humidity: 94%
Barometer: 30.15 inHg
Clouds: Clear
Visibility: 10 mi
Cloud details: Clear
KIDI 220555Z AUTO 00000KT 10SM CLR 16/15 A3015 RMK A01
KFIG - Clearfield, Pennsylvania, USA
Distance from station: ENE 31 mi
Updated: Sep 22 2017 1:54 am
Clear  
Clear  
   Wind: NNW 4.6 mph
Wind: NNW 4.6 mph
Temperature: 59°F
Dew Point: 57.2°F
Humidity: 94%
Barometer: 30.15 inHg
Clouds: Clear
Visibility: 10 mi
Cloud details: Clear
KFIG 220554Z AUTO 33004KT 10SM CLR 15/14 A3015 RMK AO2 SLP200 T01500144 10200 20144 52002
KJST - Johnstown, Pennsylvania, USA
Distance from station: S 44 mi
Updated: Sep 22 2017 1:54 am
Clear  
Clear  
   Wind: Calm
Wind: Calm
Temperature: 64.4°F
Dew Point: 57.2°F
Humidity: 78%
Barometer: 30.16 inHg
Clouds: Clear
Visibility: 10 mi
Cloud details: Clear
KJST 220554Z AUTO 00000KT 10SM CLR 18/14 A3016 RMK AO2 SLP198 T01780139 10228 20178 55001
KPIT - Pittsburgh, Pennsylvania, USA
Distance from station: WSW 74 mi
Updated: Sep 22 2017 1:51 am
Clear  
Clear  
   Wind: Calm
Wind: Calm
Temperature: 66.2°F
Dew Point: 62.6°F
Humidity: 88%
Barometer: 30.11 inHg
Clouds: Clear
Visibility: 10 mi
Cloud details: Clear
KPIT 220551Z 00000KT 10SM CLR 19/17 A3011 RMK AO2 SLP194 T01890167 10272 20183 55002
KLBE - Latrobe/Westmorl, Pennsylvania, USA
Distance from station: SSW 52 mi
Updated: Sep 22 2017 1:55 am
Clear  
Clear  
   Wind: Calm
Wind: Calm
Temperature: 59°F
Dew Point: 59°F
Humidity: 100%
Barometer: 30.12 inHg
Clouds: Clear
Visibility: 7 mi
Cloud details: Clear
KLBE 220555Z AUTO 00000KT 7SM CLR 15/15 A3012 RMK AO2
KBTP - Butler Co., Pennsylvania, USA
Distance from station: WSW 52 mi
Updated: Sep 22 2017 1:56 am
Clear  
Clear  
   Wind: NNE 3.5 mph
Wind: NNE 3.5 mph
Temperature: 57.2°F
Dew Point: 57.2°F
Humidity: 100%
Barometer: 30.13 inHg
Clouds: Clear
Visibility: 7 mi
Cloud details: Clear
KBTP 220556Z AUTO 03003KT 7SM CLR 14/14 A3013 RMK AO2 SLP200 T01440144 10217 20144 56001
KUCP - New Castle Muni, Pennsylvania, USA
Distance from station: W 75 mi
Updated: Sep 22 2017 1:56 am
Clear  
Clear  
   Wind: Calm
Wind: Calm
Temperature: 59°F
Dew Point: 59°F
Humidity: 100%
Barometer: 30.12 inHg
Clouds: Clear
Visibility: 7 mi
Cloud details: Clear
KUCP 220556Z AUTO 00000KT 7SM CLR 15/15 A3012 RMK AO2 SLP209 T01500150 10239 20150 56002
KFKL - Franklin, Pennsylvania, USA
Distance from station: WNW 54 mi
Updated: Sep 22 2017 1:56 am
Clear  
Clear  
   Wind: ENE 4.6 mph
Wind: ENE 4.6 mph
Temperature: 60.8°F
Dew Point: 59°F
Humidity: 94%
Barometer: 30.15 inHg
Clouds: Clear
Visibility: 8 mi
Cloud details: Clear
KFKL 220556Z AUTO 06004KT 8SM CLR 16/15 A3015 RMK AO2 SLP202 T01610150 10222 20161 55002
KAOO - Altoona, Pennsylvania, USA
Distance from station: SE 57 mi
Updated: Sep 22 2017 1:53 am
Clear  
Clear  
   Wind: Calm
Wind: Calm
Temperature: 60.8°F
Dew Point: 57.2°F
Humidity: 88%
Barometer: 30.14 inHg
Clouds: Clear
Visibility: 10 mi
Cloud details: Clear
KAOO 220553Z AUTO 00000KT 10SM CLR 16/14 A3014 RMK AO2 SLP196 T01560144 10194 20150 53001
KUNV - State College, Pennsylvania, USA
Distance from station: E 61 mi
Updated: Sep 22 2017 1:55 am
Partly Cloudy  
Partly Cloudy  
   Wind: Calm
Wind: Calm
Temperature: 64.4°F
Dew Point: 60.8°F
Humidity: 88%
Barometer: 30.13 inHg
Clouds: Partly Cloudy
Visibility: 10 mi
Cloud details: Partly Cloudy 6000 ft,
Partly Cloudy 7000 ft,
Partly Cloudy 8500 ft
KUNV 220555Z AUTO 00000KT 10SM SCT060 SCT070 SCT085 18/16 A3013 RMK AO2 T01760163 10236 20172
KBFD - Bradford, Pennsylvania, USA
Distance from station: NNE 62 mi
Updated: Sep 22 2017 1:53 am
Clear  
Clear  
   Wind: Calm
Wind: Calm
Temperature: 55.4°F
Dew Point: 55.4°F
Humidity: 100%
Barometer: 30.17 inHg
Clouds: Clear
Visibility: 10 mi
Cloud details: Clear
KBFD 220553Z AUTO 00000KT 10SM CLR 13/13 A3017 RMK AO2 SLP205 T01330128 10189 20133 55001

Script developed by  Saratoga-weather.org Adapted for the template by  Weerstation Leuven

Equipment we use:

Weather-station
Davis VP2

Weather-program
Cumulus

Weather-server
Dell Inspiron 3521

Provider
Host On A Rope

Davis VP2

Cumulus

Dell Inspiron 3521

Host On A Rope